首页
METAR-TAF:

METAR-TAF

机场 :

Daniel Field Airport

奥古斯塔, 喬治亞, 美国

纬度: 33-28-01N, 经度: 082-02-19W, 海拔: 128米

当前天气观测

该预报发布于38分钟前的18:53 UTC
温度 33°C
湿度 41%
气压 1024 hPa
能見度: 16.1公里
少量云层高于4900英尺

METAR: KDNL 231853Z AUTO 10SM FEW049 33/18 A3023 RMK AO2 SLP229 T03330178

时间: 15:31 (19:31 UTC)

预报

该预报发布于1小时和51分钟前的17:40 UTC
预报有效从23日的 18点(UTC)到 24日的 18点(UTC)
风速5节,风向
能見度: 10公里
散云层高于4000英尺
从 24日的 0100点(UTC)
风速3节,风向多变
能見度: 10公里
散云层高于4000英尺
从 24日的 0500点(UTC)
风速3节,风向多变
能見度: 10公里
散云层高于1200英尺
多云层高于2500英尺
从 24日的 0800点(UTC)
风速3节,风向多变
能見度: 8.0公里
散云层高于600英尺
多云层高于1000英尺
轻雾
从 24日的 1500点(UTC)
风速6节,风向西
能見度: 10公里
散云层高于1500英尺
多云层高于3500英尺

TAF: KDNL 231740Z 2318/2418 19005KT P6SM SCT040 FM240100 VRB03KT P6SM SCT040 FM240500 VRB03KT P6SM SCT012 BKN025 FM240800 VRB03KT 5SM BR SCT006 BKN010 FM241500 27006KT P6SM SCT015 BKN035

超过4000个机场的气象观测和天气预报(METAR&TAF报告)。

可查询的气象台以黄色和红色小点在地图上表示。

将鼠标移到小点上方,可查看气象台名称。

然后点击查看天气观测和预报。

如需切换地图:点击带黑十字的绿色按钮放大地图;点击带横线的绿色按钮缩小地图;或者点击绿色箭头查看邻近地区的地图。


METAR-TAF: